createdAt,value
2019-03-08T00:00:08.130Z,21.10
2019-03-08T00:02:36.613Z,17.98
2019-03-08T00:05:06.048Z,10.95
2019-03-08T00:07:34.788Z,10.58
2019-03-08T00:10:03.266Z,7.95
2019-03-08T00:12:31.725Z,11.80
2019-03-08T00:15:00.351Z,8.28
2019-03-08T00:17:28.759Z,14.30
2019-03-08T00:19:57.302Z,7.20
2019-03-08T00:22:26.056Z,7.87
2019-03-08T00:24:54.894Z,9.55
2019-03-08T00:27:23.368Z,9.33
2019-03-08T00:29:51.913Z,19.55
2019-03-08T00:32:20.386Z,14.98
2019-03-08T00:34:48.844Z,7.35
2019-03-08T00:37:17.562Z,7.55
2019-03-08T00:39:46.057Z,7.25
2019-03-08T00:42:14.514Z,7.47
2019-03-08T00:44:42.988Z,8.98
2019-03-08T00:47:11.550Z,6.87
2019-03-08T00:49:40.033Z,6.62
2019-03-08T00:52:08.870Z,7.58
2019-03-08T00:54:37.343Z,10.60
2019-03-08T00:57:05.873Z,7.12
2019-03-08T00:59:34.368Z,8.00
2019-03-08T01:02:02.932Z,8.15
2019-03-08T01:04:31.414Z,6.00
2019-03-08T01:07:00.184Z,8.25
2019-03-08T01:09:28.667Z,6.17
2019-03-08T01:11:57.825Z,5.35
2019-03-08T01:14:26.324Z,8.35
2019-03-08T01:16:54.843Z,5.55
2019-03-08T01:19:23.303Z,6.58
2019-03-08T01:21:52.159Z,7.17
2019-03-08T01:24:20.619Z,6.35
2019-03-08T01:26:49.105Z,6.50
2019-03-08T01:29:17.634Z,7.55
2019-03-08T01:31:46.114Z,6.17
2019-03-08T01:34:14.672Z,6.72
2019-03-08T01:36:43.477Z,9.00
2019-03-08T01:39:12.036Z,5.78
2019-03-08T01:41:40.570Z,9.13
2019-03-08T01:44:09.210Z,5.55
2019-03-08T01:46:37.713Z,6.20
2019-03-08T01:49:06.170Z,5.78
2019-03-08T01:51:34.903Z,8.28
2019-03-08T01:54:03.392Z,6.20
2019-03-08T01:56:31.862Z,6.33
2019-03-08T01:59:00.354Z,7.08
2019-03-08T02:01:28.881Z,8.10
2019-03-08T02:03:57.344Z,6.62
2019-03-08T02:06:26.008Z,10.10
2019-03-08T02:08:54.460Z,4.80
2019-03-08T02:11:23.024Z,6.45
2019-03-08T02:13:51.491Z,4.87
2019-03-08T02:16:19.972Z,5.30
2019-03-08T02:18:48.428Z,5.97
2019-03-08T02:21:17.176Z,5.75
2019-03-08T02:23:45.628Z,5.92
2019-03-08T02:26:14.085Z,5.08
2019-03-08T02:28:42.589Z,5.08
2019-03-08T02:31:11.044Z,4.42
2019-03-08T02:33:39.586Z,5.75
2019-03-08T02:36:08.589Z,4.85
2019-03-08T02:38:37.125Z,3.60
2019-03-08T02:41:05.766Z,3.85
2019-03-08T02:43:34.258Z,5.12
2019-03-08T02:46:02.818Z,5.62
2019-03-08T02:48:31.272Z,4.53
2019-03-08T02:51:00.018Z,3.75
2019-03-08T02:53:28.473Z,4.55
2019-03-08T02:55:56.971Z,4.65
2019-03-08T02:58:25.435Z,7.53
2019-03-08T03:00:53.971Z,5.47
2019-03-08T03:03:22.498Z,4.37
2019-03-08T03:05:51.232Z,6.65
2019-03-08T03:08:19.764Z,6.33
2019-03-08T03:10:48.300Z,6.67
2019-03-08T03:13:16.788Z,5.87
2019-03-08T03:15:45.264Z,7.47
2019-03-08T03:18:13.818Z,4.83
2019-03-08T03:20:42.302Z,5.50
2019-03-08T03:23:10.786Z,6.70
2019-03-08T03:25:39.244Z,6.72
2019-03-08T03:28:07.735Z,6.60
2019-03-08T03:30:36.202Z,6.20
2019-03-08T03:33:04.692Z,6.25
2019-03-08T03:35:33.342Z,6.08
2019-03-08T03:38:01.906Z,5.08
2019-03-08T03:40:30.395Z,5.92
2019-03-08T03:42:58.854Z,6.30
2019-03-08T03:45:27.324Z,6.12
2019-03-08T03:47:55.792Z,8.48
2019-03-08T03:50:24.434Z,6.78
2019-03-08T03:52:52.922Z,6.15
2019-03-08T03:55:21.399Z,9.48
2019-03-08T03:57:49.878Z,11.15
2019-03-08T04:00:20.526Z,11.22
2019-03-08T04:02:49.048Z,8.55
2019-03-08T04:05:17.852Z,7.22
2019-03-08T04:07:46.319Z,7.40
2019-03-08T04:10:16.010Z,8.35
2019-03-08T04:12:44.502Z,8.05
2019-03-08T04:15:17.951Z,8.65
2019-03-08T04:17:46.709Z,9.33
2019-03-08T04:20:16.724Z,10.55
2019-03-08T04:22:45.377Z,11.63
2019-03-08T04:25:14.704Z,10.63
2019-03-08T04:27:43.237Z,11.53
2019-03-08T04:30:16.575Z,12.75
2019-03-08T04:32:45.366Z,15.13
2019-03-08T04:35:13.831Z,28.35
2019-03-08T04:37:42.595Z,19.92
2019-03-08T04:40:12.405Z,16.02
2019-03-08T04:42:40.941Z,15.05
2019-03-08T04:45:15.092Z,14.10
2019-03-08T04:47:43.770Z,17.48
2019-03-08T04:50:16.540Z,12.25
2019-03-08T04:52:45.182Z,13.08
2019-03-08T04:55:18.385Z,10.82
2019-03-08T04:57:47.385Z,11.45
2019-03-08T05:00:18.123Z,8.03
2019-03-08T05:02:46.687Z,9.35
2019-03-08T05:05:15.326Z,11.33
2019-03-08T05:07:43.874Z,11.22
2019-03-08T05:10:17.482Z,14.63
2019-03-08T05:12:46.578Z,12.90
2019-03-08T05:15:16.104Z,66.72
2019-03-08T05:17:44.721Z,12.35
2019-03-08T05:20:13.967Z,17.07
2019-03-08T05:22:42.429Z,14.33
2019-03-08T05:25:13.313Z,14.87
2019-03-08T05:27:42.049Z,23.00
2019-03-08T05:30:15.324Z,15.93
2019-03-08T05:32:43.811Z,13.93
2019-03-08T05:35:13.516Z,17.65
2019-03-08T05:37:42.293Z,16.37
2019-03-08T05:40:20.186Z,12.58
2019-03-08T05:42:47.626Z,18.30
2019-03-08T05:45:16.439Z,18.32
2019-03-08T05:47:44.971Z,15.32
2019-03-08T05:50:13.703Z,17.67
2019-03-08T05:52:42.715Z,23.90
2019-03-08T05:55:12.179Z,21.55
2019-03-08T05:57:40.797Z,31.68
2019-03-08T06:00:12.911Z,64.65
2019-03-08T06:02:41.419Z,45.73
2019-03-08T06:05:10.126Z,89.30
2019-03-08T06:07:38.794Z,226.22
2019-03-08T06:10:33.547Z,103.27
2019-03-08T06:13:03.373Z,199.42
2019-03-08T06:15:31.906Z,68.28
2019-03-08T06:18:00.726Z,24.67
2019-03-08T06:20:29.195Z,43.30
2019-03-08T06:22:57.750Z,10.32
2019-03-08T06:25:26.570Z,15.10
2019-03-08T06:27:55.047Z,19.00
2019-03-08T06:30:23.504Z,7.80
2019-03-08T06:32:52.415Z,10.05
2019-03-08T06:35:21.023Z,11.00
2019-03-08T06:37:49.514Z,9.25
2019-03-08T06:40:18.145Z,9.85
2019-03-08T06:42:46.648Z,14.65
2019-03-08T06:45:18.794Z,11.83
2019-03-08T06:47:47.449Z,9.43
2019-03-08T06:50:16.399Z,10.08
2019-03-08T06:52:45.006Z,15.08
2019-03-08T06:55:15.692Z,16.17
2019-03-08T06:57:44.219Z,19.57
2019-03-08T07:00:34.059Z,9.30
2019-03-08T07:03:03.200Z,20.25
2019-03-08T07:05:31.683Z,15.00
2019-03-08T07:08:00.158Z,23.30
2019-03-08T07:10:28.654Z,27.58
2019-03-08T07:13:03.122Z,20.17
2019-03-08T07:15:27.614Z,20.08
2019-03-08T07:17:56.081Z,20.02
2019-03-08T07:20:26.210Z,15.03
2019-03-08T07:22:56.340Z,15.95
2019-03-08T07:25:38.470Z,10.63
2019-03-08T07:30:40.953Z,11.55
2019-03-08T07:33:13.480Z,13.65
2019-03-08T07:35:58.958Z,9.73
2019-03-08T07:38:38.270Z,11.93
2019-03-08T07:41:08.375Z,14.35
2019-03-08T07:43:40.964Z,17.30
2019-03-08T07:46:29.251Z,19.60
2019-03-08T07:49:14.311Z,17.77
2019-03-08T07:51:44.457Z,24.77
2019-03-08T07:54:30.955Z,10.50
2019-03-08T07:57:17.632Z,11.50
2019-03-08T07:59:56.869Z,15.93
2019-03-08T08:02:29.498Z,16.95
2019-03-08T08:05:02.152Z,10.50
2019-03-08T08:07:37.798Z,12.80
2019-03-08T08:10:10.831Z,10.72
2019-03-08T08:12:57.211Z,13.22
2019-03-08T08:15:27.396Z,16.05
2019-03-08T08:18:03.263Z,13.00
2019-03-08T08:20:33.399Z,23.83
2019-03-08T08:23:09.316Z,19.48
2019-03-08T08:25:41.845Z,7.83
2019-03-08T08:28:21.330Z,8.00
2019-03-08T08:31:03.289Z,17.45
2019-03-08T08:33:36.118Z,6.62
2019-03-08T08:36:12.126Z,8.03
2019-03-08T08:38:54.198Z,9.03
2019-03-08T08:41:33.590Z,17.62
2019-03-08T08:44:19.132Z,19.67
2019-03-08T08:46:51.986Z,12.28
2019-03-08T08:49:27.878Z,13.08
2019-03-08T08:51:58.019Z,7.08
2019-03-08T08:54:44.574Z,9.28
2019-03-08T08:57:32.713Z,14.28
2019-03-08T09:00:05.423Z,9.10
2019-03-08T09:02:35.555Z,33.50
2019-03-08T09:05:06.569Z,18.52
2019-03-08T09:07:39.659Z,17.10
2019-03-08T09:10:14.645Z,16.07
2019-03-08T09:12:47.575Z,9.90
2019-03-08T09:15:20.925Z,13.05
2019-03-08T09:18:02.845Z,13.75
2019-03-08T09:20:44.999Z,12.35
2019-03-08T09:23:15.421Z,13.08
2019-03-08T09:25:45.524Z,9.60
2019-03-08T09:28:15.655Z,14.05
2019-03-08T09:30:52.786Z,14.68
2019-03-08T09:33:22.967Z,8.28
2019-03-08T09:35:55.921Z,8.70
2019-03-08T09:38:28.760Z,13.48
2019-03-08T09:41:14.985Z,10.13
2019-03-08T09:43:54.056Z,8.00
2019-03-08T09:46:36.984Z,28.85
2019-03-08T09:49:25.314Z,10.58
2019-03-08T09:52:04.589Z,17.48
2019-03-08T09:54:40.396Z,13.53
2019-03-08T09:57:22.742Z,11.70
2019-03-08T10:00:08.860Z,15.38
2019-03-08T10:02:54.001Z,17.70
2019-03-08T10:05:24.153Z,11.40
2019-03-08T10:08:10.490Z,8.20
2019-03-08T10:10:55.681Z,19.17
2019-03-08T10:13:42.088Z,30.55
2019-03-08T10:16:12.201Z,61.35
2019-03-08T10:18:42.324Z,33.28
2019-03-08T10:21:28.615Z,37.98
2019-03-08T10:24:02.917Z,26.80
2019-03-08T10:26:33.179Z,21.75
2019-03-08T10:29:03.289Z,27.62
2019-03-08T10:31:36.143Z,20.80
2019-03-08T10:34:11.979Z,38.70
2019-03-08T10:36:42.348Z,40.50
2019-03-08T10:39:18.396Z,15.15
2019-03-08T10:41:48.529Z,18.23
2019-03-08T10:44:21.631Z,40.75
2019-03-08T10:47:06.801Z,15.10
2019-03-08T10:49:55.302Z,52.78
2019-03-08T10:52:42.957Z,58.95
2019-03-08T10:55:14.645Z,66.80
2019-03-08T10:57:44.765Z,171.87
2019-03-08T11:00:16.216Z,41.13
2019-03-08T11:02:51.829Z,93.37
2019-03-08T11:05:21.969Z,75.25
2019-03-08T11:07:55.121Z,45.92
2019-03-08T11:10:25.247Z,114.50
2019-03-08T11:13:11.515Z,74.53
2019-03-08T11:15:43.682Z,61.25
2019-03-08T11:18:25.812Z,39.80
2019-03-08T11:21:08.535Z,41.95
2019-03-08T11:23:38.641Z,50.83
2019-03-08T11:26:17.566Z,30.50
2019-03-08T11:28:53.414Z,25.37
2019-03-08T11:31:26.242Z,9.13
2019-03-08T11:34:02.387Z,34.30
2019-03-08T11:36:35.239Z,12.10
2019-03-08T11:39:06.868Z,29.90
2019-03-08T11:41:37.006Z,23.47
2019-03-08T11:44:07.181Z,36.75
2019-03-08T11:46:43.257Z,62.30
2019-03-08T11:49:19.461Z,33.78
2019-03-08T11:51:59.217Z,30.62
2019-03-08T11:54:40.743Z,30.82
2019-03-08T11:57:09.426Z,33.42
2019-03-08T11:59:39.546Z,46.48
2019-03-08T12:02:25.933Z,18.15
2019-03-08T12:05:01.514Z,16.35
2019-03-08T12:07:31.846Z,16.62
2019-03-08T12:10:03.035Z,14.75
2019-03-08T12:12:33.140Z,38.73
2019-03-08T12:15:15.423Z,40.80
2019-03-08T12:17:51.272Z,16.20
2019-03-08T12:20:27.691Z,39.95
2019-03-08T12:23:00.496Z,20.00
2019-03-08T12:25:30.703Z,99.75
2019-03-08T12:28:19.105Z,142.98
2019-03-08T12:31:05.091Z,57.33
2019-03-08T12:33:38.129Z,23.98
2019-03-08T12:36:13.749Z,40.23
2019-03-08T12:38:43.864Z,36.95
2019-03-08T12:41:23.360Z,25.48
2019-03-08T12:43:56.737Z,30.35
2019-03-08T12:46:32.957Z,36.40
2019-03-08T12:49:11.821Z,17.10
2019-03-08T12:51:58.305Z,38.00
2019-03-08T12:54:43.250Z,23.25
2019-03-08T12:57:31.664Z,35.25
2019-03-08T13:00:07.744Z,29.75
2019-03-08T13:02:37.870Z,16.60
2019-03-08T13:05:24.481Z,33.83
2019-03-08T13:08:10.769Z,26.10
2019-03-08T13:10:39.312Z,36.25
2019-03-08T13:13:07.863Z,47.23
2019-03-08T13:15:36.352Z,30.23
2019-03-08T13:18:04.907Z,47.88
2019-03-08T13:20:33.388Z,31.25
2019-03-08T13:23:02.168Z,27.25
2019-03-08T13:25:30.681Z,137.00
2019-03-08T13:27:59.202Z,73.40
2019-03-08T13:30:27.755Z,70.83
2019-03-08T13:32:56.236Z,54.40
2019-03-08T13:35:24.716Z,14.87
2019-03-08T13:37:53.470Z,11.83
2019-03-08T13:40:21.936Z,30.48
2019-03-08T13:42:50.441Z,50.73
2019-03-08T13:45:21.427Z,16.77
2019-03-08T13:47:49.962Z,23.18
2019-03-08T13:50:18.529Z,38.28
2019-03-08T13:52:47.269Z,19.30
2019-03-08T13:55:16.915Z,32.73
2019-03-08T13:57:45.452Z,18.42
2019-03-08T14:00:18.892Z,24.82
2019-03-08T14:02:47.435Z,24.27
2019-03-08T14:05:16.354Z,17.82
2019-03-08T14:07:44.891Z,34.18
2019-03-08T14:10:16.438Z,17.77
2019-03-08T14:12:46.417Z,24.40
2019-03-08T14:15:16.145Z,21.10
2019-03-08T14:17:44.789Z,30.05
2019-03-08T14:20:16.486Z,15.68
2019-03-08T14:22:45.185Z,17.23
2019-03-08T14:25:13.787Z,25.25
2019-03-08T14:27:44.030Z,16.87
2019-03-08T14:30:24.487Z,12.03
2019-03-08T14:32:52.950Z,11.10
2019-03-08T14:35:21.860Z,11.57
2019-03-08T14:37:52.414Z,10.93
2019-03-08T14:40:34.010Z,14.23
2019-03-08T14:45:47.174Z,8.45
2019-03-08T14:48:15.645Z,13.18
2019-03-08T14:50:46.903Z,12.13
2019-03-08T14:53:15.740Z,14.70
2019-03-08T14:55:47.194Z,36.50
2019-03-08T14:58:15.659Z,77.10
2019-03-08T15:00:45.771Z,58.00
2019-03-08T15:03:14.322Z,105.22
2019-03-08T15:05:43.199Z,70.47
2019-03-08T15:08:13.600Z,37.40
2019-03-08T15:10:43.586Z,48.05
2019-03-08T15:13:13.352Z,58.65
2019-03-08T15:15:41.851Z,45.33
2019-03-08T15:18:10.460Z,44.53
2019-03-08T15:20:38.933Z,26.25
2019-03-08T15:23:07.505Z,19.77
2019-03-08T15:25:36.004Z,17.07
2019-03-08T15:28:04.758Z,30.82
2019-03-08T15:30:33.327Z,15.45
2019-03-08T15:33:02.101Z,20.92
2019-03-08T15:35:30.589Z,38.45
2019-03-08T15:37:59.134Z,34.00
2019-03-08T15:40:33.203Z,48.48
2019-03-08T15:45:27.641Z,39.98
2019-03-08T15:47:56.295Z,23.27
2019-03-08T15:50:24.772Z,63.17
2019-03-08T15:52:53.326Z,30.72
2019-03-08T15:55:21.924Z,21.75
2019-03-08T15:57:50.471Z,19.73
2019-03-08T16:00:22.842Z,19.95
2019-03-08T16:02:51.647Z,20.82
2019-03-08T16:05:23.816Z,27.70
2019-03-08T16:07:51.304Z,28.20
2019-03-08T16:10:21.321Z,47.85
2019-03-08T16:12:50.037Z,35.52
2019-03-08T16:15:18.663Z,41.80
2019-03-08T16:17:47.209Z,45.90
2019-03-08T16:20:20.260Z,41.28
2019-03-08T16:22:48.798Z,47.38
2019-03-08T16:25:18.063Z,49.58
2019-03-08T16:27:48.630Z,47.13
2019-03-08T16:30:22.915Z,31.87
2019-03-08T16:32:55.975Z,40.52
2019-03-08T16:35:24.292Z,57.05
2019-03-08T16:38:10.121Z,60.45
2019-03-08T16:40:40.090Z,72.20
2019-03-08T16:43:09.971Z,46.23
2019-03-08T16:45:40.012Z,47.38
2019-03-08T16:48:09.912Z,50.00
2019-03-08T16:50:39.779Z,50.05
2019-03-08T16:53:26.170Z,34.35
2019-03-08T16:55:55.126Z,40.63
2019-03-08T16:58:40.607Z,70.78
2019-03-08T17:01:10.731Z,78.65
2019-03-08T17:03:41.132Z,84.35
2019-03-08T17:06:11.282Z,100.58
2019-03-08T17:08:47.354Z,68.87
2019-03-08T17:11:17.493Z,70.72
2019-03-08T17:13:53.674Z,63.90
2019-03-08T17:16:38.716Z,75.57
2019-03-08T17:19:11.886Z,89.47
2019-03-08T17:21:40.677Z,82.72
2019-03-08T17:24:19.875Z,92.45
2019-03-08T17:26:52.702Z,105.07
2019-03-08T17:29:28.863Z,86.40
2019-03-08T17:32:17.302Z,96.92
2019-03-08T17:34:47.455Z,87.78
2019-03-08T17:37:26.783Z,82.65
2019-03-08T17:39:57.277Z,76.37
2019-03-08T17:42:30.115Z,96.63
2019-03-08T17:45:18.493Z,85.97
2019-03-08T17:47:57.772Z,85.75
2019-03-08T17:50:27.890Z,101.42
2019-03-08T17:53:14.316Z,94.92
2019-03-08T17:56:03.077Z,96.30
2019-03-08T17:58:49.662Z,94.80
2019-03-08T18:01:38.158Z,86.12
2019-03-08T18:04:08.343Z,63.75
2019-03-08T18:06:38.448Z,73.07
2019-03-08T18:09:27.156Z,65.40
2019-03-08T18:12:03.117Z,76.57
2019-03-08T18:14:39.144Z,69.42
2019-03-08T18:17:13.202Z,77.10
2019-03-08T18:19:43.503Z,78.45
2019-03-08T18:22:29.599Z,73.28
2019-03-08T18:25:11.784Z,60.98
2019-03-08T18:27:42.283Z,68.35
2019-03-08T18:30:17.596Z,71.95
2019-03-08T18:32:57.002Z,66.07
2019-03-08T18:35:44.273Z,50.12
2019-03-08T18:38:17.392Z,58.83
2019-03-08T18:40:47.512Z,108.40
2019-03-08T18:43:20.716Z,68.10
2019-03-08T18:45:50.858Z,65.62
2019-03-08T18:48:26.722Z,57.60
2019-03-08T18:50:56.860Z,56.70
2019-03-08T18:53:39.156Z,46.83
2019-03-08T18:56:09.263Z,47.27
2019-03-08T18:58:48.608Z,53.78
2019-03-08T19:01:27.286Z,56.55
2019-03-08T19:03:57.396Z,60.52
2019-03-08T19:06:27.510Z,81.30
2019-03-08T19:09:13.975Z,63.48
2019-03-08T19:11:44.080Z,72.70
2019-03-08T19:14:32.594Z,77.10
2019-03-08T19:17:02.730Z,86.85
2019-03-08T19:19:33.186Z,75.35
2019-03-08T19:22:06.430Z,95.28
2019-03-08T19:24:45.496Z,112.65
2019-03-08T19:27:32.358Z,68.22
2019-03-08T19:30:02.584Z,75.75
2019-03-08T19:32:38.463Z,67.90
2019-03-08T19:35:11.714Z,50.17
2019-03-08T19:37:54.168Z,58.75
2019-03-08T19:40:27.969Z,73.10
2019-03-08T19:42:58.214Z,50.63
2019-03-08T19:45:28.325Z,96.17
2019-03-08T19:48:10.796Z,84.75
2019-03-08T19:50:57.558Z,136.25
2019-03-08T19:53:44.511Z,81.32
2019-03-08T19:56:17.049Z,100.67
2019-03-08T19:58:56.012Z,142.18
2019-03-08T20:01:42.334Z,129.35
2019-03-08T20:04:18.811Z,129.12
2019-03-08T20:06:51.655Z,574.25
2019-03-08T20:09:27.786Z,575.40
2019-03-08T20:12:03.635Z,376.80
2019-03-08T20:14:33.755Z,247.35
2019-03-08T20:17:15.657Z,130.50
2019-03-08T20:20:02.280Z,257.12
2019-03-08T20:22:35.337Z,239.80
2019-03-08T20:25:14.661Z,230.30
2019-03-08T20:27:53.351Z,91.82
2019-03-08T20:30:28.960Z,89.77
2019-03-08T20:32:59.075Z,156.87
2019-03-08T20:35:29.198Z,50.55
2019-03-08T20:37:59.312Z,88.70
2019-03-08T20:40:34.978Z,88.17
2019-03-08T20:43:08.111Z,105.72
2019-03-08T20:45:50.302Z,81.97
2019-03-08T20:48:18.766Z,73.20
2019-03-08T20:50:47.267Z,69.32
2019-03-08T20:53:15.741Z,104.27
2019-03-08T20:55:44.499Z,68.52
2019-03-08T20:58:12.995Z,78.22
2019-03-08T21:00:41.749Z,64.67
2019-03-08T21:03:10.237Z,144.75
2019-03-08T21:05:38.703Z,63.33
2019-03-08T21:08:07.274Z,65.52
2019-03-08T21:10:35.749Z,49.15
2019-03-08T21:13:07.030Z,77.97
2019-03-08T21:15:35.500Z,80.10
2019-03-08T21:18:05.538Z,94.13
2019-03-08T21:20:34.075Z,102.67
2019-03-08T21:23:04.901Z,79.62
2019-03-08T21:25:33.368Z,71.75
2019-03-08T21:28:02.167Z,87.10
2019-03-08T21:30:30.635Z,71.60
2019-03-08T21:32:59.183Z,88.22
2019-03-08T21:35:28.014Z,96.75
2019-03-08T21:37:56.475Z,79.72
2019-03-08T21:40:25.024Z,157.43
2019-03-08T21:42:53.505Z,151.30
2019-03-08T21:45:21.977Z,127.47
2019-03-08T21:47:50.445Z,124.12
2019-03-08T21:50:19.151Z,94.58
2019-03-08T21:52:47.642Z,85.35
2019-03-08T21:55:16.144Z,106.45
2019-03-08T21:57:44.632Z,118.57
2019-03-08T22:00:18.751Z,60.28
2019-03-08T22:02:47.233Z,42.70
2019-03-08T22:05:17.348Z,47.65
2019-03-08T22:07:45.815Z,38.17
2019-03-08T22:10:34.606Z,21.12
2019-03-08T22:13:03.142Z,39.23
2019-03-08T22:15:31.674Z,43.02
2019-03-08T22:18:00.162Z,83.47
2019-03-08T22:20:28.637Z,57.08
2019-03-08T22:22:57.106Z,131.90
2019-03-08T22:25:25.858Z,141.68
2019-03-08T22:27:54.401Z,125.38
2019-03-08T22:30:23.045Z,108.60
2019-03-08T22:32:51.567Z,127.70
2019-03-08T22:35:20.112Z,117.65
2019-03-08T22:37:48.668Z,117.25
2019-03-08T22:40:17.236Z,86.95
2019-03-08T22:42:45.815Z,95.25
2019-03-08T22:45:14.352Z,94.70
2019-03-08T22:47:42.853Z,129.00
2019-03-08T22:50:15.295Z,150.12
2019-03-08T22:52:43.907Z,132.15
2019-03-08T22:55:14.759Z,133.22
2019-03-08T22:57:43.309Z,223.82
2019-03-08T23:00:31.421Z,278.30
2019-03-08T23:02:59.965Z,209.65
2019-03-08T23:05:28.470Z,171.82
2019-03-08T23:07:57.016Z,274.25
2019-03-08T23:10:26.477Z,353.95
2019-03-08T23:12:54.948Z,443.87
2019-03-08T23:15:23.452Z,253.98
2019-03-08T23:17:51.919Z,264.52
2019-03-08T23:20:20.419Z,216.15
2019-03-08T23:22:48.911Z,163.35
2019-03-08T23:25:19.435Z,168.28
2019-03-08T23:27:58.523Z,172.45
2019-03-08T23:30:27.465Z,150.70
2019-03-08T23:32:55.965Z,152.97
2019-03-08T23:35:24.438Z,156.00
2019-03-08T23:37:52.946Z,168.15
2019-03-08T23:40:21.409Z,203.95
2019-03-08T23:42:49.916Z,178.40
2019-03-08T23:45:18.398Z,222.45
2019-03-08T23:47:46.886Z,212.80
2019-03-08T23:50:15.369Z,209.60
2019-03-08T23:52:43.872Z,239.55
2019-03-08T23:55:12.356Z,212.90
2019-03-08T23:57:40.824Z,221.18
